Time;durP1;ratioP1;P1;durP2;ratioP2;P2;SDS_P1;SDS_P2;PMS_P1;PMS_P2;Temp;Humidity;BMP_temperature;BMP_pressure;BME280_temperature;BME280_humidity;BME280_pressure;Samples;Min_cycle;Max_cycle;Signal;HPM_P1;HPM_P2
2022/06/18 00:01:33;;;;;;;5.95;3.17;;;;;;;14.58;71.29;99152.91;5055301;28;20041;-74
2022/06/18 00:04:04;;;;;;;7.05;4.30;;;;;;;14.53;71.10;99155.19;5055381;28;20127;-74
2022/06/18 00:06:34;;;;;;;5.75;3.33;;;;;;;14.53;70.95;99158.00;5056327;28;20049;-74
2022/06/18 00:09:01;;;;;;;;;;;;;;;14.44;71.07;99161.00;5075994;28;20048;-75
2022/06/18 00:14:13;;;;;;;5.45;3.50;;;;;;;14.44;71.22;99163.81;5074741;28;20470;-75
2022/06/18 00:16:40;;;;;;;10.20;3.60;;;;;;;14.45;71.42;99171.03;5075152;28;20147;-75
2022/06/18 00:19:08;;;;;;;9.05;3.55;;;;;;;14.43;71.08;99153.81;5074903;28;20418;-74
2022/06/18 00:21:35;;;;;;;5.13;3.15;;;;;;;14.39;71.10;99146.50;5075167;28;20063;-75
2022/06/18 00:24:06;;;;;;;5.72;3.85;;;;;;;14.41;71.14;99158.94;5074665;28;20045;-74
2022/06/18 00:26:36;;;;;;;7.05;3.35;;;;;;;14.41;71.26;99152.53;5074975;28;20083;-74
2022/06/18 00:29:08;;;;;;;5.80;3.53;;;;;;;14.41;71.44;99163.72;5075814;28;20481;-79
2022/06/18 00:31:35;;;;;;;5.53;3.20;;;;;;;14.37;71.64;99158.06;5074912;28;20059;-75
2022/06/18 00:34:02;;;;;;;5.10;3.05;;;;;;;14.37;71.26;99155.28;5074897;28;20525;-77
2022/06/18 00:36:29;;;;;;;5.65;3.30;;;;;;;14.40;71.67;99167.72;5074812;28;20414;-74
2022/06/18 00:38:56;;;;;;;8.60;2.97;;;;;;;14.39;71.55;99160.50;5074735;28;20071;-77
2022/06/18 00:41:26;;;;;;;7.07;2.72;;;;;;;14.39;71.40;99163.31;5064398;28;20484;-70
2022/06/18 00:43:58;;;;;;;;;;;;;;;14.28;71.78;99159.44;5055312;28;20132;-70
2022/06/18 00:46:30;;;;;;;5.10;2.78;;;;;;;14.33;71.48;99167.56;5054581;28;19925;-69
2022/06/18 00:49:00;;;;;;;5.07;3.25;;;;;;;14.38;71.29;99173.69;5054858;28;20136;-70
2022/06/18 00:51:35;;;;;;;8.10;3.85;;;;;;;14.37;71.09;99174.03;5054630;28;20053;-73
2022/06/18 00:54:08;;;;;;;11.05;2.85;;;;;;;14.34;70.99;99169.19;5054731;28;20131;-69
2022/06/18 00:57:18;;;;;;;5.10;2.70;;;;;;;14.33;70.76;99178.75;5054151;28;20052;-72
2022/06/18 01:00:16;;;;;;;5.30;2.80;;;;;;;14.26;71.10;99181.38;5054105;28;20504;-73
2022/06/18 01:02:46;;;;;;;4.32;2.65;;;;;;;14.26;71.09;99185.00;5054156;28;20601;-75
2022/06/18 01:05:17;;;;;;;11.38;2.92;;;;;;;14.22;71.29;99183.28;5054496;28;20136;-71
2022/06/18 01:07:49;;;;;;;11.85;3.60;;;;;;;14.23;71.15;99185.72;5054156;28;20061;-73
2022/06/18 01:10:26;;;;;;;4.80;2.92;;;;;;;14.24;70.87;99186.56;5054455;28;20099;-71
2022/06/18 01:12:53;;;;;;;5.65;3.40;;;;;;;14.20;71.26;99191.19;5054104;28;20053;-71
2022/06/18 01:15:21;;;;;;;4.50;2.90;;;;;;;14.20;71.08;99185.59;5052643;28;20063;-71
2022/06/18 01:17:51;;;;;;;6.80;3.63;;;;;;;14.21;70.84;99188.03;5053929;28;20500;-71
2022/06/18 01:20:20;;;;;;;4.28;2.75;;;;;;;14.18;71.55;99187.97;5053626;28;20055;-71
2022/06/18 01:23:02;;;;;;;4.82;3.53;;;;;;;14.19;71.04;99195.19;5053711;28;20132;-71
2022/06/18 01:25:30;;;;;;;7.70;3.22;;;;;;;14.17;71.27;99186.34;5053041;28;20148;-72
2022/06/18 01:27:58;;;;;;;5.90;3.40;;;;;;;14.22;71.01;99191.66;5054017;28;20136;-71
2022/06/18 01:30:32;;;;;;;6.72;3.53;;;;;;;14.24;70.85;99195.72;5053674;28;20530;-75
2022/06/18 01:33:00;;;;;;;6.13;2.83;;;;;;;14.19;71.01;99195.19;5053455;28;20045;-73
2022/06/18 01:35:28;;;;;;;4.68;3.25;;;;;;;14.19;71.26;99200.78;5053437;28;20049;-73
2022/06/18 01:37:57;;;;;;;6.93;2.67;;;;;;;14.22;71.22;99200.88;5053614;28;20056;-74
2022/06/18 01:40:33;;;;;;;5.35;3.20;;;;;;;14.23;70.86;99201.66;5055438;28;20507;-74
2022/06/18 01:43:01;;;;;;;9.32;2.88;;;;;;;14.20;70.87;99199.59;5073712;28;20052;-74
2022/06/18 01:45:33;;;;;;;6.28;2.95;;;;;;;14.24;70.84;99209.72;5073231;28;20125;-75
2022/06/18 01:48:08;;;;;;;4.50;2.83;;;;;;;14.24;70.87;99200.53;5073145;28;20052;-73
2022/06/18 01:50:43;;;;;;;5.28;2.80;;;;;;;14.19;70.83;99210.00;5073158;28;20075;-74
2022/06/18 01:53:25;;;;;;;11.57;6.13;;;;;;;14.22;70.77;99214.03;5072137;28;20058;-73
2022/06/18 01:55:58;;;;;;;7.85;3.67;;;;;;;14.23;70.63;99212.84;5072981;28;20083;-73
2022/06/18 01:58:41;;;;;;;5.50;2.92;;;;;;;14.25;70.14;99214.16;5073244;28;20507;-74
2022/06/18 02:01:14;;;;;;;4.82;2.72;;;;;;;14.26;70.29;99223.34;5073536;28;20131;-74
2022/06/18 02:03:42;;;;;;;5.88;3.20;;;;;;;14.23;69.99;99224.03;5073205;28;20044;-73
2022/06/18 02:06:09;;;;;;;5.18;2.70;;;;;;;14.24;70.12;99231.31;5073061;28;20446;-72
2022/06/18 02:08:37;;;;;;;5.03;3.08;;;;;;;14.25;69.67;99221.75;5073100;28;20047;-72
2022/06/18 02:11:07;;;;;;;15.55;3.45;;;;;;;14.25;69.50;99224.53;5073000;28;20049;-72
2022/06/18 02:13:42;;;;;;;6.22;4.00;;;;;;;14.27;69.14;99231.38;5073046;28;20561;-73
2022/06/18 02:16:15;;;;;;;9.10;4.50;;;;;;;14.24;69.32;99231.31;5073897;28;20052;-74
2022/06/18 02:18:45;;;;;;;11.77;4.13;;;;;;;14.26;68.82;99234.53;5072624;28;20568;-75
2022/06/18 02:21:16;;;;;;;10.50;4.32;;;;;;;14.25;68.65;99233.75;5072921;28;20071;-75
2022/06/18 02:23:43;;;;;;;7.55;4.35;;;;;;;14.25;68.68;99238.53;5072803;28;20068;-75
2022/06/18 02:26:09;;;;;;;7.55;4.63;;;;;;;14.27;68.33;99236.19;5072778;28;20063;-74
2022/06/18 02:28:40;;;;;;;7.28;4.57;;;;;;;14.26;68.27;99228.94;5072856;28;20139;-74
2022/06/18 02:31:13;;;;;;;6.10;4.22;;;;;;;14.28;68.43;99216.22;5073059;28;20109;-74
2022/06/18 02:33:57;;;;;;;9.00;4.68;;;;;;;14.31;68.16;99231.47;5072872;28;20048;-74
2022/06/18 02:36:30;;;;;;;6.07;4.05;;;;;;;14.32;68.14;99227.50;5072538;28;20080;-74
2022/06/18 02:39:25;;;;;;;6.88;4.32;;;;;;;14.34;67.56;99225.97;5071193;28;20056;-73
2022/06/18 02:42:01;;;;;;;8.70;4.18;;;;;;;14.38;67.47;99212.84;5058124;28;20492;-73
2022/06/18 02:44:28;;;;;;;6.95;3.38;;;;;;;14.38;67.38;99220.44;5052301;28;20143;-72
2022/06/18 02:46:56;;;;;;;7.07;4.25;;;;;;;14.43;67.34;99220.16;5052193;28;20049;-73
2022/06/18 02:49:23;;;;;;;6.45;3.75;;;;;;;14.44;67.59;99218.97;5052315;28;20048;-73
2022/06/18 02:51:50;;;;;;;6.35;3.63;;;;;;;14.42;67.33;99215.75;5052795;28;20079;-74
2022/06/18 02:54:19;;;;;;;4.78;2.72;;;;;;;14.46;67.28;99211.84;5051001;28;20081;-74
2022/06/18 02:56:48;;;;;;;6.03;3.60;;;;;;;14.46;67.20;99211.84;5052514;28;20135;-75
2022/06/18 02:59:15;;;;;;;5.43;3.38;;;;;;;14.50;67.17;99217.50;5052621;28;20440;-73
2022/06/18 03:01:42;;;;;;;6.45;3.40;;;;;;;14.54;66.71;99210.00;5052088;28;20044;-74
2022/06/18 03:04:09;;;;;;;4.85;2.90;;;;;;;14.54;66.47;99201.63;5052326;28;20433;-74
2022/06/18 03:06:37;;;;;;;9.15;2.67;;;;;;;14.60;66.58;99211.34;5052710;28;20100;-73
2022/06/18 03:09:04;;;;;;;6.72;2.25;;;;;;;14.65;66.08;99213.84;5052315;28;20045;-73
2022/06/18 03:14:18;;;;;;;8.20;2.35;;;;;;;14.61;66.19;99218.56;5052353;28;20037;-72
2022/06/18 03:16:46;;;;;;;6.55;2.38;;;;;;;14.64;65.94;99217.81;5052191;28;20539;-73
2022/06/18 03:19:32;;;;;;;3.90;2.10;;;;;;;14.72;65.63;99227.19;5052064;28;20075;-73
2022/06/18 03:22:08;;;;;;;6.07;2.10;;;;;;;14.78;65.28;99212.53;5050707;28;20052;-73
2022/06/18 03:24:35;;;;;;;8.40;2.10;;;;;;;14.82;65.39;99219.00;5052227;28;20140;-72
2022/06/18 03:27:03;;;;;;;5.82;3.35;;;;;;;14.88;65.17;99211.94;5052019;28;20053;-72
2022/06/18 03:29:30;;;;;;;3.58;2.00;;;;;;;14.93;65.00;99211.63;5052184;28;20088;-73
2022/06/18 03:32:00;;;;;;;4.20;2.13;;;;;;;14.96;64.41;99207.28;5052237;28;20059;-70
2022/06/18 03:34:28;;;;;;;4.38;2.15;;;;;;;14.98;64.26;99216.94;5051822;28;20045;-70
2022/06/18 03:36:56;;;;;;;3.42;1.98;;;;;;;15.05;64.17;99213.47;5051782;28;20057;-70
2022/06/18 03:39:24;;;;;;;2.63;1.60;;;;;;;15.10;63.74;99205.56;5052216;28;20068;-70
2022/06/18 03:41:51;;;;;;;3.15;1.80;;;;;;;15.18;63.21;99200.91;5065544;28;20056;-70
2022/06/18 03:44:18;;;;;;;3.63;1.70;;;;;;;15.38;62.77;99203.34;5072310;28;20051;-69
2022/06/18 03:46:46;;;;;;;8.38;2.00;;;;;;;15.65;62.09;99202.22;5072069;28;20049;-69
2022/06/18 03:49:31;;;;;;;5.35;1.83;;;;;;;15.93;61.21;99199.88;5073966;28;20056;-70
2022/06/18 03:52:00;;;;;;;5.68;2.10;;;;;;;16.12;60.89;99205.41;5075652;28;20499;-70
2022/06/18 03:54:28;;;;;;;5.53;1.50;;;;;;;16.21;60.42;99197.53;5076186;28;20040;-70
2022/06/18 03:56:55;;;;;;;2.28;1.52;;;;;;;16.25;59.73;99206.00;5074001;28;20049;-70
2022/06/18 03:59:22;;;;;;;2.58;1.50;;;;;;;16.35;59.17;99203.34;5075692;28;20579;-69
2022/06/18 04:01:50;;;;;;;2.30;1.50;;;;;;;16.47;58.87;99209.94;5075386;28;20058;-69
2022/06/18 04:04:17;;;;;;;3.05;1.67;;;;;;;16.57;58.70;99204.50;5075368;28;20045;-71
2022/06/18 04:06:44;;;;;;;2.90;1.60;;;;;;;16.64;57.88;99217.81;5075434;28;20127;-71
2022/06/18 04:09:12;;;;;;;3.45;1.67;;;;;;;16.67;57.73;99209.44;5075452;28;20391;-71
2022/06/18 04:11:38;;;;;;;2.00;1.25;;;;;;;16.80;57.19;99207.19;5075317;28;20051;-71
2022/06/18 04:14:06;;;;;;;2.03;1.20;;;;;;;16.90;56.72;99212.16;5075664;28;20049;-72
2022/06/18 04:16:33;;;;;;;5.28;1.42;;;;;;;16.98;56.42;99214.66;5075410;28;20470;-72
2022/06/18 04:19:00;;;;;;;3.33;1.38;;;;;;;17.09;56.00;99217.59;5075468;28;20052;-71
2022/06/18 04:21:27;;;;;;;1.58;1.08;;;;;;;17.09;55.61;99220.41;5073983;28;20503;-71
2022/06/18 04:23:55;;;;;;;2.38;1.20;;;;;;;17.14;55.45;99209.63;5075041;28;20097;-71
2022/06/18 04:26:22;;;;;;;2.08;1.10;;;;;;;17.36;55.04;99211.50;5074822;28;20101;-72
2022/06/18 04:28:49;;;;;;;3.63;1.40;;;;;;;17.53;54.32;99216.50;5075292;28;20147;-71
2022/06/18 04:31:17;;;;;;;2.42;1.17;;;;;;;17.62;53.65;99227.47;5059237;28;20067;-72
2022/06/18 04:33:45;;;;;;;2.10;1.40;;;;;;;17.79;53.83;99221.16;5054909;28;20049;-71
2022/06/18 04:36:36;;;;;;;2.83;1.95;;;;;;;17.80;52.96;99222.81;5054417;28;20063;-71
2022/06/18 04:39:03;;;;;;;2.38;1.38;;;;;;;17.86;52.89;99221.25;5054802;28;20135;-71
2022/06/18 04:41:31;;;;;;;3.35;1.50;;;;;;;18.11;52.35;99227.88;5054368;28;20053;-71
2022/06/18 04:43:59;;;;;;;2.47;1.40;;;;;;;18.30;52.10;99224.84;5054960;28;20055;-71
2022/06/18 04:46:26;;;;;;;1.83;1.10;;;;;;;18.38;51.22;99232.13;5054545;28;20049;-71
2022/06/18 04:48:53;;;;;;;2.17;1.10;;;;;;;18.31;51.36;99220.81;5053990;28;20377;-71
2022/06/18 04:51:21;;;;;;;4.70;1.30;;;;;;;18.43;50.81;99228.97;5070132;28;20389;-72
2022/06/18 04:53:48;;;;;;;1.83;1.10;;;;;;;18.47;50.53;99229.78;5054515;28;20084;-71
2022/06/18 04:56:15;;;;;;;2.22;1.35;;;;;;;18.47;50.25;99235.41;5054806;28;20156;-70
2022/06/18 04:58:43;;;;;;;3.38;1.10;;;;;;;18.64;49.48;99228.28;5054711;28;20131;-71
2022/06/18 05:01:17;;;;;;;5.10;1.35;;;;;;;18.95;48.76;99233.28;5054260;28;20542;-71
2022/06/18 05:03:44;;;;;;;2.33;1.13;;;;;;;19.27;48.19;99237.88;5054343;28;20044;-71
2022/06/18 05:06:12;;;;;;;1.58;0.90;;;;;;;19.34;47.31;99229.44;5054817;28;20144;-70
2022/06/18 05:08:39;;;;;;;1.77;1.20;;;;;;;19.17;47.07;99235.81;5054180;28;20572;-71
2022/06/18 05:11:06;;;;;;;2.95;1.00;;;;;;;19.10;47.75;99243.44;5053769;28;20049;-71
2022/06/18 05:13:33;;;;;;;1.83;1.15;;;;;;;19.27;47.82;99240.69;5054244;28;20076;-71
2022/06/18 05:16:01;;;;;;;3.13;1.20;;;;;;;19.44;47.71;99248.41;5054053;28;20069;-71
2022/06/18 05:18:33;;;;;;;2.58;1.25;;;;;;;19.61;47.21;99239.19;5053668;28;20052;-71
2022/06/18 05:21:00;;;;;;;4.05;1.33;;;;;;;19.60;46.60;99245.25;5072998;28;20078;-71
2022/06/18 05:23:28;;;;;;;3.33;1.20;;;;;;;19.63;46.41;99241.63;5074161;28;20076;-71
2022/06/18 05:25:57;;;;;;;1.33;0.98;;;;;;;19.63;46.31;99247.25;5074012;28;20052;-76
2022/06/18 05:28:25;;;;;;;;;;;;;;;19.73;46.37;99246.47;5074291;28;20106;-70
2022/06/18 05:30:52;;;;;;;1.52;1.00;;;;;;;19.87;45.91;99250.09;5074021;28;19924;-71
2022/06/18 05:33:19;;;;;;;2.40;1.00;;;;;;;20.04;45.39;99239.25;5072246;28;20048;-71
2022/06/18 05:35:46;;;;;;;5.00;1.38;;;;;;;20.13;44.73;99242.50;5073940;28;20060;-71
2022/06/18 05:38:19;;;;;;;5.72;1.20;;;;;;;20.20;44.09;99248.16;5072388;28;20052;-71
2022/06/18 05:40:47;;;;;;;5.30;1.27;;;;;;;20.20;43.92;99245.31;5068389;28;20132;-71
2022/06/18 05:43:14;;;;;;;3.47;1.00;;;;;;;20.27;44.05;99242.47;5053547;28;20057;-71
2022/06/18 05:45:42;;;;;;;5.55;2.50;;;;;;;20.43;43.67;99249.34;5053578;28;20049;-75
2022/06/18 05:48:11;;;;;;;3.05;1.10;;;;;;;20.60;43.48;99239.25;5051909;28;20056;-75
2022/06/18 05:50:39;;;;;;;2.97;1.10;;;;;;;20.89;42.82;99246.41;5053661;28;20045;-74
2022/06/18 05:53:05;;;;;;;1.45;0.90;;;;;;;21.05;42.62;99244.00;5051767;28;20060;-74
2022/06/18 05:55:32;;;;;;;1.17;0.80;;;;;;;21.17;42.08;99240.72;5053056;28;20049;-72
2022/06/18 05:58:00;;;;;;;1.98;1.00;;;;;;;21.23;41.75;99242.69;5053190;28;20057;-74
2022/06/18 06:00:29;;;;;;;1.92;1.10;;;;;;;21.40;42.07;99238.16;5053253;28;20053;-73
2022/06/18 06:02:56;;;;;;;;;;;;;;;21.61;42.02;99240.88;5053857;28;20080;-76
2022/06/18 06:05:25;;;;;;;1.80;1.23;;;;;;;22.03;41.27;99237.81;5053002;28;20394;-73
2022/06/18 06:07:52;;;;;;;5.43;0.90;;;;;;;22.38;40.10;99234.66;5052871;28;20061;-71
2022/06/18 06:13:11;;;;;;;5.88;1.08;;;;;;;24.15;37.09;99236.94;5052426;28;20098;-70
2022/06/18 06:15:38;;;;;;;1.50;0.80;;;;;;;26.99;31.60;99230.72;5051429;28;20419;-71
2022/06/18 06:18:06;;;;;;;5.35;1.05;;;;;;;29.34;27.30;99234.47;5052441;28;20084;-71
2022/06/18 06:20:38;;;;;;;1.52;0.70;;;;;;;29.71;26.35;99224.91;5066754;28;20059;-71
2022/06/18 06:23:09;;;;;;;4.97;0.88;;;;;;;28.98;26.93;99224.78;5072747;28;20072;-71
2022/06/18 06:25:37;;;;;;;1.40;0.80;;;;;;;27.01;29.08;99233.94;5072741;28;20140;-74
2022/06/18 06:28:04;;;;;;;4.85;1.05;;;;;;;25.61;31.22;99234.59;5072524;28;20131;-74
2022/06/18 06:30:32;;;;;;;3.22;1.35;;;;;;;25.25;31.77;99225.94;5073127;28;20052;-74
2022/06/18 06:32:58;;;;;;;1.50;0.80;;;;;;;24.17;33.53;99240.97;5072718;28;20055;-74
2022/06/18 06:35:25;;;;;;;1.23;0.77;;;;;;;23.59;34.30;99243.47;5072724;28;20056;-75
2022/06/18 06:37:52;;;;;;;2.95;0.85;;;;;;;23.38;34.47;99239.69;5072833;28;20049;-75
2022/06/18 06:40:19;;;;;;;5.40;1.00;;;;;;;23.17;34.70;99237.06;5070836;28;20049;-74
2022/06/18 06:42:49;;;;;;;3.28;0.88;;;;;;;22.95;34.74;99243.44;5052132;28;20061;-73
2022/06/18 06:45:20;;;;;;;1.38;0.70;;;;;;;24.46;32.43;99230.75;5052589;28;20103;-73
2022/06/18 06:47:48;;;;;;;2.72;0.90;;;;;;;25.35;30.85;99236.38;5052714;28;20052;-74
2022/06/18 06:50:17;;;;;;;1.77;0.90;;;;;;;25.89;30.21;99236.78;5052507;28;20543;-73
2022/06/18 06:52:45;;;;;;;8.23;1.08;;;;;;;29.28;26.01;99236.34;5050950;28;20517;-74
2022/06/18 06:58:07;;;;;;;1.02;0.77;;;;;;;36.23;17.81;99232.06;5052447;28;20087;-74
2022/06/18 07:00:38;;;;;;;2.08;1.00;;;;;;;38.48;16.46;99236.41;5052207;28;20048;-72
2022/06/18 07:03:05;;;;;;;1.52;0.90;;;;;;;39.90;14.69;99240.13;5052505;28;20145;-72
2022/06/18 07:05:32;;;;;;;3.00;1.48;;;;;;;41.80;13.45;99247.19;5052706;28;20069;-77
2022/06/18 07:07:59;;;;;;;4.47;2.55;;;;;;;43.69;12.51;99230.66;5052366;28;20048;-73
2022/06/18 07:10:26;;;;;;;5.07;0.98;;;;;;;44.70;11.44;99228.41;5063781;28;20139;-73
2022/06/18 07:12:53;;;;;;;2.85;2.05;;;;;;;45.52;10.93;99233.28;5071204;28;20541;-73
2022/06/18 07:15:20;;;;;;;2.78;1.27;;;;;;;46.23;10.07;99236.88;5072180;28;20076;-76
2022/06/18 07:17:47;;;;;;;3.20;1.50;;;;;;;46.93;9.83;99237.13;5070962;28;20400;-72
2022/06/18 07:20:17;;;;;;;4.90;1.30;;;;;;;48.00;8.87;99224.41;5072013;28;20279;-71
2022/06/18 07:22:44;;;;;;;3.17;1.85;;;;;;;48.59;8.86;99219.47;5072233;28;20466;-72
2022/06/18 07:25:13;;;;;;;5.10;2.40;;;;;;;49.37;8.14;99229.38;5075750;28;20048;-73
2022/06/18 07:27:41;;;;;;;6.60;1.70;;;;;;;49.81;7.65;99222.75;5076015;28;20053;-72
2022/06/18 07:30:10;;;;;;;2.67;1.20;;;;;;;49.81;7.61;99228.69;5069788;28;20072;-75
2022/06/18 07:32:43;;;;;;;1.95;1.20;;;;;;;47.40;8.96;99221.72;5054665;28;20057;-72
2022/06/18 07:35:18;;;;;;;3.25;1.40;;;;;;;48.27;7.83;99210.69;5055901;28;20095;-72
2022/06/18 07:37:46;;;;;;;2.03;1.70;;;;;;;45.06;9.99;99205.78;5056610;28;20496;-73
2022/06/18 07:40:13;;;;;;;;;;;;;;;45.71;9.59;99211.03;5056702;28;20207;-73
2022/06/18 07:42:42;;;;;;;2.53;1.20;;;;;;;41.02;12.38;99211.53;5075355;28;19933;-74
2022/06/18 07:45:18;;;;;;;5.28;1.35;;;;;;;44.27;10.87;99219.41;5075617;28;20095;-73
2022/06/18 07:47:46;;;;;;;3.08;1.52;;;;;;;46.64;9.30;99217.31;5075431;28;20052;-73
2022/06/18 07:50:15;;;;;;;1.23;0.95;;;;;;;46.97;9.00;99207.28;5075645;28;20143;-72
2022/06/18 07:52:44;;;;;;;2.08;0.88;;;;;;;44.34;10.35;99204.03;5075109;28;20071;-75
2022/06/18 07:55:16;;;;;;;0.60;0.60;;;;;;;40.99;12.67;99206.78;5075709;28;20613;-73
2022/06/18 07:57:43;;;;;;;6.70;1.33;;;;;;;42.45;11.77;99203.63;5075420;28;20052;-73
2022/06/18 08:00:12;;;;;;;8.33;1.40;;;;;;;46.32;9.16;99206.09;5075584;28;20181;-74
2022/06/18 08:02:39;;;;;;;6.28;1.13;;;;;;;47.46;8.44;99201.63;5074177;28;20078;-73
2022/06/18 08:05:07;;;;;;;2.05;1.10;;;;;;;48.64;7.91;99215.53;5074165;28;20139;-73
2022/06/18 08:07:34;;;;;;;1.65;1.02;;;;;;;47.42;7.86;99205.00;5075340;28;20475;-77
2022/06/18 08:10:02;;;;;;;5.82;1.05;;;;;;;45.02;9.68;99202.44;5075276;28;20048;-73
2022/06/18 08:12:31;;;;;;;2.70;1.27;;;;;;;45.29;9.66;99203.78;5075332;28;20041;-73
2022/06/18 08:14:58;;;;;;;3.38;1.00;;;;;;;41.52;11.71;99203.75;5075515;28;20503;-73
2022/06/18 08:17:26;;;;;;;7.38;1.13;;;;;;;37.25;14.62;99198.22;5073563;28;20052;-73
2022/06/18 08:19:53;;;;;;;2.25;0.90;;;;;;;33.79;17.11;99199.63;5074918;28;20123;-76
2022/06/18 08:22:22;;;;;;;2.65;0.85;;;;;;;32.11;19.21;99209.38;5074731;28;20050;-75
2022/06/18 08:24:50;;;;;;;2.95;0.70;;;;;;;30.70;20.56;99207.25;5074572;28;20052;-73
2022/06/18 08:27:19;;;;;;;1.73;0.80;;;;;;;29.19;22.40;99201.91;5074514;28;20190;-72
2022/06/18 08:29:47;;;;;;;4.57;0.90;;;;;;;27.88;24.23;99209.72;5075107;28;20052;-71
2022/06/18 08:32:14;;;;;;;3.40;1.00;;;;;;;27.38;24.69;99212.50;5074607;28;20456;-75
2022/06/18 08:34:41;;;;;;;3.60;1.20;;;;;;;33.54;18.64;99203.13;5074410;28;20500;-76
2022/06/18 08:37:09;;;;;;;1.13;0.90;;;;;;;40.08;13.42;99203.72;5074643;28;20037;-69
2022/06/18 08:39:39;;;;;;;2.15;1.00;;;;;;;44.27;10.49;99199.66;5074330;28;20471;-69
2022/06/18 08:42:19;;;;;;;1.70;0.98;;;;;;;46.30;9.32;99203.75;5057885;28;20099;-70
2022/06/18 08:44:47;;;;;;;2.55;1.00;;;;;;;47.95;8.53;99204.00;5053890;28;20140;-73
2022/06/18 08:47:27;;;;;;;2.95;0.70;;;;;;;48.73;8.05;99191.22;5052966;28;20063;-71
2022/06/18 08:50:19;;;;;;;2.17;0.80;;;;;;;43.88;10.49;99193.16;5054539;28;20507;-74
2022/06/18 08:53:27;;;;;;;3.20;0.75;;;;;;;39.01;13.58;99189.50;5054346;28;20087;-73
2022/06/18 08:56:43;;;;;;;1.10;0.73;;;;;;;34.94;16.44;99197.81;5054058;28;20045;-74
2022/06/18 08:59:46;;;;;;;1.05;0.70;;;;;;;33.16;18.43;99198.94;5012730;28;20077;-79
2022/06/18 09:02:26;;;;;;;5.70;0.95;;;;;;;40.94;12.46;99193.84;5043825;28;20516;-76
2022/06/18 09:05:28;;;;;;;2.92;1.10;;;;;;;45.54;9.56;99201.94;5054213;28;20136;-75
2022/06/18 09:08:04;;;;;;;1.75;1.10;;;;;;;47.15;8.68;99203.13;5054074;28;20139;-75
2022/06/18 09:10:57;;;;;;;6.45;1.60;;;;;;;47.85;7.76;99197.94;5053874;28;20094;-78
2022/06/18 09:13:31;;;;;;;3.67;0.80;;;;;;;41.72;11.17;99192.81;5068102;28;20049;-75
2022/06/18 09:16:02;;;;;;;3.72;1.30;;;;;;;36.49;14.66;99198.06;5074135;28;20075;-77
2022/06/18 09:19:04;;;;;;;2.47;0.93;;;;;;;32.75;18.31;99199.09;5074175;28;20127;-76
2022/06/18 09:21:52;;;;;;;1.10;0.80;;;;;;;31.15;20.16;99195.00;5051627;28;20519;-76
2022/06/18 09:24:29;;;;;;;1.50;0.80;;;;;;;30.28;20.66;99194.72;5074073;28;20055;-75
2022/06/18 09:27:04;;;;;;;26.73;14.50;;;;;;;36.62;15.50;99181.00;5073667;28;20068;-78
2022/06/18 09:29:34;;;;;;;6.80;1.58;;;;;;;42.52;11.13;99182.44;5074086;28;20076;-74
2022/06/18 09:32:14;;;;;;;2.10;0.90;;;;;;;46.14;8.93;99180.75;5073357;28;20056;-75
2022/06/18 09:34:56;;;;;;;1.10;0.80;;;;;;;47.15;8.52;99176.59;5073854;28;20084;-77
2022/06/18 09:38:11;;;;;;;1.35;0.73;;;;;;;42.95;10.64;99171.22;5073241;28;20562;-78
2022/06/18 09:40:45;;;;;;;4.70;1.10;;;;;;;37.48;13.73;99165.81;5065352;28;20114;-75
2022/06/18 09:43:22;;;;;;;2.83;0.80;;;;;;;34.38;16.52;99166.53;5053038;28;20080;-77
2022/06/18 09:45:53;;;;;;;1.73;0.90;;;;;;;31.96;19.08;99180.50;5052995;28;20047;-75
2022/06/18 09:48:20;;;;;;;1.20;0.70;;;;;;;30.58;20.11;99172.94;5053185;28;20048;-75
2022/06/18 09:50:54;;;;;;;4.25;1.08;;;;;;;29.89;21.00;99167.63;5053315;28;20072;-77
2022/06/18 09:53:27;;;;;;;0.90;0.60;;;;;;;28.90;22.46;99163.28;5053594;28;20449;-76
2022/06/18 09:56:04;;;;;;;1.17;0.80;;;;;;;28.33;22.50;99158.78;5052865;28;20051;-77
2022/06/18 09:58:37;;;;;;;1.58;0.80;;;;;;;28.04;23.14;99163.84;5052021;28;20049;-80
2022/06/18 10:01:08;;;;;;;1.70;0.77;;;;;;;27.98;22.78;99159.97;5052881;28;20423;-76
2022/06/18 10:09:43;;;;;;;1.65;0.93;;;;;;;26.21;25.01;99163.50;5072970;28;20052;-76
2022/06/18 10:12:23;;;;;;;2.28;1.27;;;;;;;25.58;26.47;99170.72;5072945;28;20044;-76
2022/06/18 10:14:55;;;;;;;2.85;1.00;;;;;;;25.26;27.32;99153.53;5073121;28;20139;-76
2022/06/18 10:17:41;;;;;;;3.10;1.00;;;;;;;24.94;27.18;99159.13;5072507;28;20551;-75
2022/06/18 10:20:10;;;;;;;8.57;1.50;;;;;;;24.71;27.71;99173.38;5071592;28;20044;-75
2022/06/18 10:23:09;;;;;;;2.58;0.90;;;;;;;24.65;28.64;99169.44;5072710;28;20055;-76
2022/06/18 10:25:52;;;;;;;2.47;0.98;;;;;;;24.84;28.23;99165.84;5072364;28;20045;-76
2022/06/18 10:28:31;;;;;;;2.25;0.80;;;;;;;24.82;28.07;99176.84;5072945;28;20144;-76
2022/06/18 10:31:11;;;;;;;7.97;1.02;;;;;;;24.82;27.80;99176.84;5060449;28;20048;-76
2022/06/18 10:34:05;;;;;;;3.78;0.70;;;;;;;24.74;27.64;99178.22;5052679;28;20049;-75
2022/06/18 10:36:52;;;;;;;1.27;0.70;;;;;;;24.63;28.01;99166.22;5052234;28;20135;-76
2022/06/18 10:39:48;;;;;;;1.05;0.80;;;;;;;24.12;28.28;99176.06;5052187;28;20052;-76
2022/06/18 10:42:54;;;;;;;5.43;0.70;;;;;;;23.79;29.08;99184.72;5068352;28;20052;-78
2022/06/18 10:45:35;;;;;;;3.00;1.20;;;;;;;23.66;28.85;99187.38;5073131;28;20121;-71
2022/06/18 10:48:11;;;;;;;2.28;0.98;;;;;;;23.87;28.62;99180.53;5072612;28;20056;-71
2022/06/18 10:50:49;;;;;;;3.47;0.85;;;;;;;24.22;28.43;99180.75;5072639;28;20094;-71
2022/06/18 10:53:20;;;;;;;4.97;0.80;;;;;;;24.45;28.67;99175.06;5071042;28;20447;-71
2022/06/18 10:56:00;;;;;;;7.07;1.08;;;;;;;24.55;28.09;99178.97;5072546;28;20044;-71
2022/06/18 10:58:28;;;;;;;1.58;0.88;;;;;;;24.59;28.21;99176.84;5073504;28;20418;-70
2022/06/18 11:01:03;;;;;;;6.18;1.83;;;;;;;24.72;28.47;99175.03;5076564;28;20391;-71
2022/06/18 11:03:32;;;;;;;2.90;0.93;;;;;;;24.74;28.55;99172.53;5075476;28;20053;-75
2022/06/18 11:06:04;;;;;;;7.88;0.90;;;;;;;24.58;28.90;99178.09;5074894;28;20041;-70
2022/06/18 11:08:35;;;;;;;1.70;1.02;;;;;;;24.28;29.36;99178.25;5076409;28;20056;-70
2022/06/18 11:11:08;;;;;;;2.55;1.50;;;;;;;24.03;29.88;99172.97;5076102;28;20170;-72
2022/06/18 11:13:39;;;;;;;10.18;1.23;;;;;;;23.75;30.30;99173.44;5076377;28;20044;-72
2022/06/18 11:16:17;;;;;;;1.45;1.00;;;;;;;23.42;30.35;99182.03;5075254;28;20062;-71
2022/06/18 11:18:53;;;;;;;2.45;0.80;;;;;;;23.11;31.08;99175.53;5076140;28;20059;-76
2022/06/18 11:21:36;;;;;;;4.68;1.02;;;;;;;23.00;31.35;99164.31;5055955;28;20400;-73
2022/06/18 11:24:13;;;;;;;7.82;1.00;;;;;;;22.96;31.56;99160.72;5056405;28;20063;-74
2022/06/18 11:26:49;;;;;;;1.10;0.73;;;;;;;23.02;31.87;99163.88;5056207;28;20055;-71
2022/06/18 11:29:32;;;;;;;2.15;1.02;;;;;;;23.19;31.35;99166.50;5056090;28;20076;-71
2022/06/18 11:32:08;;;;;;;3.63;2.55;;;;;;;23.48;30.88;99163.28;5074929;28;20077;-72
2022/06/18 11:34:39;;;;;;;1.48;0.80;;;;;;;23.89;30.14;99156.13;5075969;28;20464;-71
2022/06/18 11:37:25;;;;;;;7.82;1.33;;;;;;;23.96;30.27;99141.84;5076039;28;20091;-75
2022/06/18 11:40:09;;;;;;;1.95;0.80;;;;;;;23.82;30.87;99132.72;5075933;28;20052;-70
2022/06/18 11:42:42;;;;;;;1.85;0.90;;;;;;;23.75;30.87;99144.22;5055472;28;20145;-71
2022/06/18 11:45:30;;;;;;;4.65;1.60;;;;;;;23.80;31.02;99140.88;5055723;28;20048;-71
2022/06/18 11:48:18;;;;;;;1.67;1.20;;;;;;;23.92;30.96;99143.13;5055561;28;20460;-71
2022/06/18 11:50:52;;;;;;;1.73;1.02;;;;;;;23.94;30.67;99129.25;5054814;28;20053;-71
2022/06/18 11:53:36;;;;;;;2.80;1.05;;;;;;;23.72;31.04;99133.69;5055571;28;20098;-74
2022/06/18 11:56:11;;;;;;;1.23;0.80;;;;;;;23.59;30.33;99127.03;5055176;28;20514;-71
2022/06/18 11:58:41;;;;;;;2.00;1.10;;;;;;;23.56;30.77;99119.38;5055562;28;20455;-70
2022/06/18 12:01:21;;;;;;;1.83;1.00;;;;;;;23.52;31.00;99118.59;5055493;28;20045;-72
2022/06/18 12:03:51;;;;;;;2.25;1.00;;;;;;;23.47;31.37;99121.94;5055677;28;20407;-74
2022/06/18 12:06:42;;;;;;;3.45;1.40;;;;;;;23.62;31.03;99123.31;5055107;28;20068;-70
2022/06/18 12:09:27;;;;;;;4.15;1.48;;;;;;;23.72;31.09;99122.34;5054275;28;20045;-75
2022/06/18 12:11:54;;;;;;;3.10;1.20;;;;;;;23.68;30.92;99119.56;5053686;28;20044;-71
2022/06/18 12:14:47;;;;;;;2.50;1.20;;;;;;;23.67;31.17;99108.63;5053742;28;20048;-71
2022/06/18 12:17:20;;;;;;;2.47;1.20;;;;;;;23.71;31.07;99109.38;5055069;28;20118;-72